Big Timber, MT

3:42 PM MDT on September 18, 2014 (GMT -0600)
S. Boulder-McKenzie Flats | Change Station
CLOSE
Current Station
Personal Weather Station
Location: Big Timber, MT
Elevation: 4840 ft
Nearby Weather Stations
Active Advisory: Special Statement

Elev 4840 ft 45.75 °N, 109.96 °W | Updated 10 seconds ago

Partly Cloudy
Partly Cloudy
70.5 °F
Feels Like 76 °F
N
5.8
Wind Variable Wind from WSW
Gusts 5.8 mph

Today
High -- | Low -- °F
--% Chance of Precip.
Yesterday
High -- | Low -- °F
Precip. -- in
7:01 AM 7:25 PM
Waning Crescent, 24% visible
Pressure 29.85 in
Visibility 10.0 miles
Clouds Few 6500 ft
Scattered Clouds 8000 ft
Mostly Cloudy 10000 ft
Heat Index 76 °F
Dew Point 55 °F
Humidity 58%
Rainfall 0.00 in
Snow Depth 0 in , 0 in , 0 in
UV 3 out of 12
Pollen 6.10 out of 12
Air Quality Not available.
Flu Activity Not available.
SPECI KLVM 182120Z AUTO 26007KT 10SM TS FEW065 SCT080 BKN100 21/13 A2985 RMK AO2 LTG DSNT SW TSB14 T02060128

More Conditions Fewer Conditions

Pressure 29.85 in
Visibility 10.0 miles
Clouds Few 6500 ft
Scattered Clouds 8000 ft
Mostly Cloudy 10000 ft
Heat Index 76 °F
Dew Point 55 °F
Humidity 58%
Rainfall 0.00 in
Snow Depth 0 in , 0 in , 0 in
UV 3 out of 12
Pollen 6.10 out of 12
Air Quality Not available.
Flu Activity Not available.
SPECI KLVM 182120Z AUTO 26007KT 10SM TS FEW065 SCT080 BKN100 21/13 A2985 RMK AO2 LTG DSNT SW TSB14 T02060128

More Conditions Fewer Conditions

10-Day Weather Forecast

Almanac

Astronomy

Sep. 18, 2014 Rise Set
Actual Time 7:01 AM MDT 7:25 PM MDT
Civil Twilight 6:32 AM MDT 7:54 PM MDT
Nautical Twilight 5:56 AM MDT 8:29 PM MDT
Astronomical Twilight 5:20 AM MDT 9:06 PM MDT
Moon 1:44 AM MDT 4:29 PM MDT
Length of Visible Light 13h 22m
Length of Day
12h 23m
Tomorrow will be 3m 12s shorter.
Waning Crescent, 24% of the Moon is Illuminated
Today
Waning Crescent
Sep 24
New
Oct 1
First Quarter
Oct 8
Full
Oct 15
Last Quarter

Today's Extremes

State Highs State Lows

Community

WunderPhotos

Upload Photos

1,754,452 photos uploaded!

WunderBlogs® & News

Nearby

Snow Depth

Station Depth Elevation
Sacajawea 0 in 6550 ft
Stringer Creek 0 in 6550 ft
Rocker Peak 0 in 8000 ft
Lubrecht Flume 0 in 4680 ft
Combination 0 in 5600 ft

Earthquake Activity

City Distance Mag. Time & Date
No recent earthquake activity has been reported nearby.
Minimum magnitude displayed is 2.5.

Coastal Water Temperatures

Place Temperature
No Stations Reporting

Nearby Weather Stations